sensor_id;sensor_type;location;lat;lon;timestamp;P1;durP1;ratioP1;P2;durP2;ratioP2
53062;SDS011;40529;52.172;10.548;2023-09-30T00:01:44;10.73;;;3.40;;
53062;SDS011;40529;52.172;10.548;2023-09-30T00:04:10;12.38;;;3.85;;
53062;SDS011;40529;52.172;10.548;2023-09-30T00:06:36;12.35;;;3.97;;
53062;SDS011;40529;52.172;10.548;2023-09-30T00:09:02;10.70;;;3.40;;
53062;SDS011;40529;52.172;10.548;2023-09-30T00:11:30;12.65;;;3.88;;
53062;SDS011;40529;52.172;10.548;2023-09-30T00:13:56;13.93;;;3.90;;
53062;SDS011;40529;52.172;10.548;2023-09-30T00:16:22;8.55;;;3.28;;
53062;SDS011;40529;52.172;10.548;2023-09-30T00:18:48;13.70;;;3.67;;
53062;SDS011;40529;52.172;10.548;2023-09-30T00:21:14;14.05;;;4.20;;
53062;SDS011;40529;52.172;10.548;2023-09-30T00:23:40;9.02;;;3.85;;
53062;SDS011;40529;52.172;10.548;2023-09-30T00:26:06;11.23;;;3.90;;
53062;SDS011;40529;52.172;10.548;2023-09-30T00:28:33;12.88;;;3.88;;
53062;SDS011;40529;52.172;10.548;2023-09-30T00:30:59;12.45;;;4.70;;
53062;SDS011;40529;52.172;10.548;2023-09-30T00:33:25;9.70;;;3.88;;
53062;SDS011;40529;52.172;10.548;2023-09-30T00:35:51;11.70;;;4.25;;
53062;SDS011;40529;52.172;10.548;2023-09-30T00:38:17;15.10;;;3.92;;
53062;SDS011;40529;52.172;10.548;2023-09-30T00:40:47;10.15;;;3.97;;
53062;SDS011;40529;52.172;10.548;2023-09-30T00:43:20;14.63;;;4.25;;
53062;SDS011;40529;52.172;10.548;2023-09-30T00:45:47;14.18;;;3.95;;
53062;SDS011;40529;52.172;10.548;2023-09-30T00:48:14;9.60;;;3.90;;
53062;SDS011;40529;52.172;10.548;2023-09-30T00:50:40;16.42;;;4.88;;
53062;SDS011;40529;52.172;10.548;2023-09-30T00:53:07;18.67;;;4.60;;
53062;SDS011;40529;52.172;10.548;2023-09-30T00:55:33;13.13;;;3.63;;
53062;SDS011;40529;52.172;10.548;2023-09-30T00:57:59;10.63;;;3.97;;
53062;SDS011;40529;52.172;10.548;2023-09-30T01:00:25;15.10;;;3.97;;
53062;SDS011;40529;52.172;10.548;2023-09-30T01:02:54;15.82;;;4.22;;
53062;SDS011;40529;52.172;10.548;2023-09-30T01:05:21;17.90;;;4.55;;
53062;SDS011;40529;52.172;10.548;2023-09-30T01:07:47;19.02;;;4.20;;
53062;SDS011;40529;52.172;10.548;2023-09-30T01:10:14;13.93;;;4.25;;
53062;SDS011;40529;52.172;10.548;2023-09-30T01:12:40;13.48;;;4.13;;
53062;SDS011;40529;52.172;10.548;2023-09-30T01:15:07;17.25;;;4.20;;
53062;SDS011;40529;52.172;10.548;2023-09-30T01:17:35;14.73;;;3.70;;
53062;SDS011;40529;52.172;10.548;2023-09-30T01:20:01;16.65;;;4.20;;
53062;SDS011;40529;52.172;10.548;2023-09-30T01:22:32;13.10;;;3.88;;
53062;SDS011;40529;52.172;10.548;2023-09-30T01:24:58;13.82;;;4.28;;
53062;SDS011;40529;52.172;10.548;2023-09-30T01:27:24;12.15;;;3.85;;
53062;SDS011;40529;52.172;10.548;2023-09-30T01:29:51;19.10;;;4.25;;
53062;SDS011;40529;52.172;10.548;2023-09-30T01:32:17;16.38;;;4.10;;
53062;SDS011;40529;52.172;10.548;2023-09-30T01:34:43;12.00;;;3.65;;
53062;SDS011;40529;52.172;10.548;2023-09-30T01:37:09;15.15;;;4.10;;
53062;SDS011;40529;52.172;10.548;2023-09-30T01:39:35;17.23;;;3.88;;
53062;SDS011;40529;52.172;10.548;2023-09-30T01:42:01;12.35;;;3.85;;
53062;SDS011;40529;52.172;10.548;2023-09-30T01:44:27;16.38;;;3.35;;
53062;SDS011;40529;52.172;10.548;2023-09-30T01:46:53;16.13;;;3.55;;
53062;SDS011;40529;52.172;10.548;2023-09-30T01:49:19;14.57;;;3.60;;
53062;SDS011;40529;52.172;10.548;2023-09-30T01:51:49;17.15;;;3.78;;
53062;SDS011;40529;52.172;10.548;2023-09-30T01:54:15;12.52;;;3.55;;
53062;SDS011;40529;52.172;10.548;2023-09-30T01:56:41;9.70;;;3.90;;
53062;SDS011;40529;52.172;10.548;2023-09-30T01:59:07;9.07;;;3.75;;
53062;SDS011;40529;52.172;10.548;2023-09-30T02:01:33;15.10;;;3.40;;
53062;SDS011;40529;52.172;10.548;2023-09-30T02:03:59;15.00;;;3.90;;
53062;SDS011;40529;52.172;10.548;2023-09-30T02:06:25;15.35;;;4.05;;
53062;SDS011;40529;52.172;10.548;2023-09-30T02:08:51;13.65;;;4.85;;
53062;SDS011;40529;52.172;10.548;2023-09-30T02:11:17;16.80;;;3.95;;
53062;SDS011;40529;52.172;10.548;2023-09-30T02:13:43;15.52;;;4.03;;
53062;SDS011;40529;52.172;10.548;2023-09-30T02:16:13;14.18;;;4.07;;
53062;SDS011;40529;52.172;10.548;2023-09-30T02:18:39;15.95;;;4.05;;
53062;SDS011;40529;52.172;10.548;2023-09-30T02:21:06;18.52;;;4.57;;
53062;SDS011;40529;52.172;10.548;2023-09-30T02:23:34;15.25;;;3.85;;
53062;SDS011;40529;52.172;10.548;2023-09-30T02:26:00;13.23;;;3.83;;
53062;SDS011;40529;52.172;10.548;2023-09-30T02:28:27;14.85;;;3.78;;
53062;SDS011;40529;52.172;10.548;2023-09-30T02:30:54;16.67;;;3.63;;
53062;SDS011;40529;52.172;10.548;2023-09-30T02:33:20;15.45;;;4.03;;
53062;SDS011;40529;52.172;10.548;2023-09-30T02:35:46;16.30;;;4.50;;
53062;SDS011;40529;52.172;10.548;2023-09-30T02:38:12;16.35;;;3.78;;
53062;SDS011;40529;52.172;10.548;2023-09-30T02:40:41;22.67;;;4.80;;
53062;SDS011;40529;52.172;10.548;2023-09-30T02:43:11;13.52;;;3.50;;
53062;SDS011;40529;52.172;10.548;2023-09-30T02:45:37;17.20;;;4.45;;
53062;SDS011;40529;52.172;10.548;2023-09-30T02:48:03;17.00;;;4.28;;
53062;SDS011;40529;52.172;10.548;2023-09-30T02:50:30;22.52;;;5.00;;
53062;SDS011;40529;52.172;10.548;2023-09-30T02:52:56;17.30;;;4.20;;
53062;SDS011;40529;52.172;10.548;2023-09-30T02:55:22;17.70;;;4.40;;
53062;SDS011;40529;52.172;10.548;2023-09-30T02:57:48;17.88;;;4.65;;
53062;SDS011;40529;52.172;10.548;2023-09-30T03:00:14;14.65;;;4.20;;
53062;SDS011;40529;52.172;10.548;2023-09-30T03:02:54;17.60;;;4.35;;
53062;SDS011;40529;52.172;10.548;2023-09-30T03:05:21;14.07;;;4.78;;
53062;SDS011;40529;52.172;10.548;2023-09-30T03:07:48;18.05;;;4.65;;
53062;SDS011;40529;52.172;10.548;2023-09-30T03:10:18;13.70;;;4.93;;
53062;SDS011;40529;52.172;10.548;2023-09-30T03:12:48;19.98;;;5.18;;
53062;SDS011;40529;52.172;10.548;2023-09-30T03:15:15;14.25;;;5.53;;
53062;SDS011;40529;52.172;10.548;2023-09-30T03:17:41;20.00;;;5.32;;
53062;SDS011;40529;52.172;10.548;2023-09-30T03:20:08;20.13;;;5.47;;
53062;SDS011;40529;52.172;10.548;2023-09-30T03:22:39;14.90;;;5.45;;
53062;SDS011;40529;52.172;10.548;2023-09-30T03:25:06;16.77;;;5.68;;
53062;SDS011;40529;52.172;10.548;2023-09-30T03:27:33;13.23;;;4.72;;
53062;SDS011;40529;52.172;10.548;2023-09-30T03:29:59;12.73;;;4.70;;
53062;SDS011;40529;52.172;10.548;2023-09-30T03:32:26;17.38;;;5.30;;
53062;SDS011;40529;52.172;10.548;2023-09-30T03:34:53;18.45;;;6.13;;
53062;SDS011;40529;52.172;10.548;2023-09-30T03:37:19;12.10;;;4.65;;
53062;SDS011;40529;52.172;10.548;2023-09-30T03:39:45;13.57;;;4.38;;
53062;SDS011;40529;52.172;10.548;2023-09-30T03:42:14;10.00;;;3.80;;
53062;SDS011;40529;52.172;10.548;2023-09-30T03:44:41;14.40;;;4.68;;
53062;SDS011;40529;52.172;10.548;2023-09-30T03:47:07;17.90;;;4.90;;
53062;SDS011;40529;52.172;10.548;2023-09-30T03:49:34;15.23;;;4.68;;
53062;SDS011;40529;52.172;10.548;2023-09-30T03:52:00;17.20;;;5.60;;
53062;SDS011;40529;52.172;10.548;2023-09-30T03:54:26;12.05;;;4.82;;
53062;SDS011;40529;52.172;10.548;2023-09-30T03:56:52;14.20;;;4.78;;
53062;SDS011;40529;52.172;10.548;2023-09-30T03:59:18;15.43;;;4.53;;
53062;SDS011;40529;52.172;10.548;2023-09-30T04:01:44;13.32;;;4.22;;
53062;SDS011;40529;52.172;10.548;2023-09-30T04:04:12;21.42;;;5.65;;
53062;SDS011;40529;52.172;10.548;2023-09-30T04:06:38;17.67;;;4.35;;
53062;SDS011;40529;52.172;10.548;2023-09-30T04:09:05;14.27;;;4.05;;
53062;SDS011;40529;52.172;10.548;2023-09-30T04:11:37;12.40;;;4.25;;
53062;SDS011;40529;52.172;10.548;2023-09-30T04:14:06;14.23;;;5.30;;
53062;SDS011;40529;52.172;10.548;2023-09-30T04:16:33;9.90;;;4.38;;
53062;SDS011;40529;52.172;10.548;2023-09-30T04:18:59;15.25;;;4.60;;
53062;SDS011;40529;52.172;10.548;2023-09-30T04:21:25;15.15;;;4.72;;
53062;SDS011;40529;52.172;10.548;2023-09-30T04:23:53;15.52;;;5.22;;
53062;SDS011;40529;52.172;10.548;2023-09-30T04:26:20;12.35;;;4.63;;
53062;SDS011;40529;52.172;10.548;2023-09-30T04:28:46;11.65;;;3.80;;
53062;SDS011;40529;52.172;10.548;2023-09-30T04:31:12;12.85;;;4.75;;
53062;SDS011;40529;52.172;10.548;2023-09-30T04:33:38;15.02;;;4.60;;
53062;SDS011;40529;52.172;10.548;2023-09-30T04:36:05;12.23;;;4.13;;
53062;SDS011;40529;52.172;10.548;2023-09-30T04:38:35;9.63;;;3.90;;
53062;SDS011;40529;52.172;10.548;2023-09-30T04:41:04;9.73;;;3.00;;
53062;SDS011;40529;52.172;10.548;2023-09-30T04:43:38;16.10;;;4.32;;
53062;SDS011;40529;52.172;10.548;2023-09-30T04:46:05;15.57;;;4.53;;
53062;SDS011;40529;52.172;10.548;2023-09-30T04:48:32;16.15;;;4.05;;
53062;SDS011;40529;52.172;10.548;2023-09-30T04:51:05;13.80;;;3.92;;
53062;SDS011;40529;52.172;10.548;2023-09-30T04:53:32;13.80;;;3.88;;
53062;SDS011;40529;52.172;10.548;2023-09-30T04:55:59;22.60;;;5.00;;
53062;SDS011;40529;52.172;10.548;2023-09-30T04:58:25;11.27;;;4.68;;
53062;SDS011;40529;52.172;10.548;2023-09-30T05:00:51;17.05;;;4.30;;
53062;SDS011;40529;52.172;10.548;2023-09-30T05:03:17;14.43;;;4.00;;
53062;SDS011;40529;52.172;10.548;2023-09-30T05:05:44;14.90;;;3.90;;
53062;SDS011;40529;52.172;10.548;2023-09-30T05:08:15;14.60;;;4.30;;
53062;SDS011;40529;52.172;10.548;2023-09-30T05:10:41;15.95;;;4.30;;
53062;SDS011;40529;52.172;10.548;2023-09-30T05:13:07;15.18;;;5.20;;
53062;SDS011;40529;52.172;10.548;2023-09-30T05:15:33;17.23;;;4.15;;
53062;SDS011;40529;52.172;10.548;2023-09-30T05:18:03;13.48;;;4.78;;
53062;SDS011;40529;52.172;10.548;2023-09-30T05:20:30;14.23;;;4.00;;
53062;SDS011;40529;52.172;10.548;2023-09-30T05:22:56;11.75;;;3.63;;
53062;SDS011;40529;52.172;10.548;2023-09-30T05:25:22;10.75;;;4.43;;
53062;SDS011;40529;52.172;10.548;2023-09-30T05:27:51;12.10;;;3.83;;
53062;SDS011;40529;52.172;10.548;2023-09-30T05:30:17;10.63;;;4.10;;
53062;SDS011;40529;52.172;10.548;2023-09-30T05:32:45;15.20;;;4.28;;
53062;SDS011;40529;52.172;10.548;2023-09-30T05:35:12;13.95;;;4.18;;
53062;SDS011;40529;52.172;10.548;2023-09-30T05:37:41;10.90;;;4.40;;
53062;SDS011;40529;52.172;10.548;2023-09-30T05:40:07;14.85;;;4.78;;
53062;SDS011;40529;52.172;10.548;2023-09-30T05:42:43;12.05;;;4.43;;
53062;SDS011;40529;52.172;10.548;2023-09-30T05:45:09;15.88;;;3.80;;
53062;SDS011;40529;52.172;10.548;2023-09-30T05:47:36;11.27;;;4.45;;
53062;SDS011;40529;52.172;10.548;2023-09-30T05:50:02;14.23;;;4.47;;
53062;SDS011;40529;52.172;10.548;2023-09-30T05:52:29;11.02;;;4.60;;
53062;SDS011;40529;52.172;10.548;2023-09-30T05:54:55;13.25;;;4.97;;
53062;SDS011;40529;52.172;10.548;2023-09-30T05:57:21;13.45;;;4.88;;
53062;SDS011;40529;52.172;10.548;2023-09-30T05:59:48;15.25;;;4.38;;
53062;SDS011;40529;52.172;10.548;2023-09-30T06:02:14;21.90;;;5.93;;
53062;SDS011;40529;52.172;10.548;2023-09-30T06:04:41;18.40;;;4.68;;
53062;SDS011;40529;52.172;10.548;2023-09-30T06:07:07;14.43;;;4.85;;
53062;SDS011;40529;52.172;10.548;2023-09-30T06:09:33;16.23;;;4.68;;
53062;SDS011;40529;52.172;10.548;2023-09-30T06:11:59;16.83;;;5.10;;
53062;SDS011;40529;52.172;10.548;2023-09-30T06:14:28;18.80;;;4.93;;
53062;SDS011;40529;52.172;10.548;2023-09-30T06:16:56;15.40;;;4.55;;
53062;SDS011;40529;52.172;10.548;2023-09-30T06:19:22;15.85;;;4.97;;
53062;SDS011;40529;52.172;10.548;2023-09-30T06:21:50;15.63;;;5.00;;
53062;SDS011;40529;52.172;10.548;2023-09-30T06:24:16;15.55;;;5.43;;
53062;SDS011;40529;52.172;10.548;2023-09-30T06:26:44;17.25;;;5.03;;
53062;SDS011;40529;52.172;10.548;2023-09-30T06:29:15;22.48;;;5.40;;
53062;SDS011;40529;52.172;10.548;2023-09-30T06:31:41;24.45;;;5.60;;
53062;SDS011;40529;52.172;10.548;2023-09-30T06:34:07;17.13;;;5.80;;
53062;SDS011;40529;52.172;10.548;2023-09-30T06:36:36;16.85;;;5.30;;
53062;SDS011;40529;52.172;10.548;2023-09-30T06:39:05;26.25;;;5.55;;
53062;SDS011;40529;52.172;10.548;2023-09-30T06:41:32;19.20;;;4.85;;
53062;SDS011;40529;52.172;10.548;2023-09-30T06:43:58;17.10;;;4.88;;
53062;SDS011;40529;52.172;10.548;2023-09-30T06:46:25;16.33;;;4.82;;
53062;SDS011;40529;52.172;10.548;2023-09-30T06:48:52;14.48;;;4.78;;
53062;SDS011;40529;52.172;10.548;2023-09-30T06:51:18;16.67;;;5.95;;
53062;SDS011;40529;52.172;10.548;2023-09-30T06:53:44;20.02;;;5.28;;
53062;SDS011;40529;52.172;10.548;2023-09-30T06:56:10;20.67;;;5.45;;
53062;SDS011;40529;52.172;10.548;2023-09-30T06:58:38;22.98;;;5.00;;
53062;SDS011;40529;52.172;10.548;2023-09-30T07:01:04;14.88;;;4.93;;
53062;SDS011;40529;52.172;10.548;2023-09-30T07:03:30;16.15;;;4.90;;
53062;SDS011;40529;52.172;10.548;2023-09-30T07:05:57;18.10;;;4.10;;
53062;SDS011;40529;52.172;10.548;2023-09-30T07:08:26;18.10;;;4.85;;
53062;SDS011;40529;52.172;10.548;2023-09-30T07:10:53;23.80;;;4.78;;
53062;SDS011;40529;52.172;10.548;2023-09-30T07:13:19;19.77;;;4.57;;
53062;SDS011;40529;52.172;10.548;2023-09-30T07:15:45;13.65;;;4.00;;
53062;SDS011;40529;52.172;10.548;2023-09-30T07:18:11;12.95;;;4.30;;
53062;SDS011;40529;52.172;10.548;2023-09-30T07:20:38;13.35;;;4.18;;
53062;SDS011;40529;52.172;10.548;2023-09-30T07:23:04;15.50;;;3.95;;
53062;SDS011;40529;52.172;10.548;2023-09-30T07:25:31;13.15;;;4.72;;
53062;SDS011;40529;52.172;10.548;2023-09-30T07:28:01;13.18;;;3.80;;
53062;SDS011;40529;52.172;10.548;2023-09-30T07:30:27;14.18;;;3.92;;
53062;SDS011;40529;52.172;10.548;2023-09-30T07:32:53;14.00;;;3.45;;
53062;SDS011;40529;52.172;10.548;2023-09-30T07:35:20;13.73;;;3.88;;
53062;SDS011;40529;52.172;10.548;2023-09-30T07:37:46;16.17;;;3.95;;
53062;SDS011;40529;52.172;10.548;2023-09-30T07:40:13;10.70;;;3.80;;
53062;SDS011;40529;52.172;10.548;2023-09-30T07:42:40;12.20;;;4.07;;
53062;SDS011;40529;52.172;10.548;2023-09-30T07:45:06;10.48;;;3.60;;
53062;SDS011;40529;52.172;10.548;2023-09-30T07:47:32;12.18;;;3.55;;
53062;SDS011;40529;52.172;10.548;2023-09-30T07:49:59;16.95;;;4.10;;
53062;SDS011;40529;52.172;10.548;2023-09-30T07:52:27;11.88;;;3.90;;
53062;SDS011;40529;52.172;10.548;2023-09-30T07:57:23;19.83;;;4.30;;
53062;SDS011;40529;52.172;10.548;2023-09-30T07:59:50;10.55;;;3.55;;
53062;SDS011;40529;52.172;10.548;2023-09-30T08:02:17;15.70;;;3.90;;
53062;SDS011;40529;52.172;10.548;2023-09-30T08:04:43;12.02;;;3.42;;
53062;SDS011;40529;52.172;10.548;2023-09-30T08:07:09;12.25;;;3.92;;
53062;SDS011;40529;52.172;10.548;2023-09-30T08:09:35;11.10;;;3.50;;
53062;SDS011;40529;52.172;10.548;2023-09-30T08:12:02;12.43;;;3.45;;
53062;SDS011;40529;52.172;10.548;2023-09-30T08:14:29;17.80;;;3.92;;
53062;SDS011;40529;52.172;10.548;2023-09-30T08:16:56;10.35;;;3.33;;
53062;SDS011;40529;52.172;10.548;2023-09-30T08:19:22;10.02;;;3.33;;
53062;SDS011;40529;52.172;10.548;2023-09-30T08:21:48;17.17;;;3.28;;
53062;SDS011;40529;52.172;10.548;2023-09-30T08:24:14;9.55;;;3.45;;
53062;SDS011;40529;52.172;10.548;2023-09-30T08:26:40;12.00;;;3.90;;
53062;SDS011;40529;52.172;10.548;2023-09-30T08:29:09;16.65;;;4.18;;
53062;SDS011;40529;52.172;10.548;2023-09-30T08:31:35;12.07;;;3.83;;
53062;SDS011;40529;52.172;10.548;2023-09-30T08:34:01;10.75;;;3.90;;
53062;SDS011;40529;52.172;10.548;2023-09-30T08:36:29;11.40;;;3.47;;
53062;SDS011;40529;52.172;10.548;2023-09-30T08:38:55;11.27;;;3.75;;
53062;SDS011;40529;52.172;10.548;2023-09-30T08:41:33;13.02;;;4.25;;
53062;SDS011;40529;52.172;10.548;2023-09-30T08:44:00;10.40;;;3.58;;
53062;SDS011;40529;52.172;10.548;2023-09-30T08:46:31;10.68;;;3.85;;
53062;SDS011;40529;52.172;10.548;2023-09-30T08:48:58;11.57;;;3.78;;
53062;SDS011;40529;52.172;10.548;2023-09-30T08:51:25;11.77;;;3.72;;
53062;SDS011;40529;52.172;10.548;2023-09-30T08:53:52;11.82;;;3.78;;
53062;SDS011;40529;52.172;10.548;2023-09-30T08:56:19;13.73;;;3.92;;
53062;SDS011;40529;52.172;10.548;2023-09-30T08:58:47;16.05;;;3.97;;
53062;SDS011;40529;52.172;10.548;2023-09-30T09:01:14;14.10;;;3.35;;
53062;SDS011;40529;52.172;10.548;2023-09-30T09:03:40;10.38;;;2.80;;
53062;SDS011;40529;52.172;10.548;2023-09-30T09:06:11;11.18;;;3.42;;
53062;SDS011;40529;52.172;10.548;2023-09-30T09:08:37;14.10;;;3.25;;
53062;SDS011;40529;52.172;10.548;2023-09-30T09:11:03;9.52;;;3.30;;
53062;SDS011;40529;52.172;10.548;2023-09-30T09:13:45;7.80;;;2.95;;
53062;SDS011;40529;52.172;10.548;2023-09-30T09:16:14;9.63;;;3.22;;
53062;SDS011;40529;52.172;10.548;2023-09-30T09:18:40;11.85;;;3.38;;
53062;SDS011;40529;52.172;10.548;2023-09-30T09:23:40;14.85;;;3.03;;
53062;SDS011;40529;52.172;10.548;2023-09-30T09:26:40;9.75;;;2.47;;
53062;SDS011;40529;52.172;10.548;2023-09-30T09:29:03;9.80;;;2.35;;
53062;SDS011;40529;52.172;10.548;2023-09-30T09:31:33;6.85;;;2.15;;
53062;SDS011;40529;52.172;10.548;2023-09-30T09:36:44;10.60;;;2.67;;
53062;SDS011;40529;52.172;10.548;2023-09-30T09:39:11;8.80;;;2.10;;
53062;SDS011;40529;52.172;10.548;2023-09-30T09:41:53;18.10;;;2.78;;
53062;SDS011;40529;52.172;10.548;2023-09-30T09:44:23;10.05;;;2.63;;
53062;SDS011;40529;52.172;10.548;2023-09-30T09:46:50;10.85;;;2.50;;
53062;SDS011;40529;52.172;10.548;2023-09-30T09:49:17;10.05;;;2.63;;
53062;SDS011;40529;52.172;10.548;2023-09-30T09:51:43;8.43;;;2.90;;
53062;SDS011;40529;52.172;10.548;2023-09-30T09:54:14;11.30;;;2.80;;
53062;SDS011;40529;52.172;10.548;2023-09-30T09:59:06;8.68;;;2.00;;
53062;SDS011;40529;52.172;10.548;2023-09-30T10:01:33;11.50;;;2.33;;
53062;SDS011;40529;52.172;10.548;2023-09-30T10:04:00;11.32;;;2.70;;
53062;SDS011;40529;52.172;10.548;2023-09-30T10:06:26;12.20;;;2.53;;
53062;SDS011;40529;52.172;10.548;2023-09-30T10:08:53;10.60;;;2.60;;
53062;SDS011;40529;52.172;10.548;2023-09-30T10:11:20;10.25;;;2.25;;
53062;SDS011;40529;52.172;10.548;2023-09-30T10:13:54;8.15;;;2.70;;
53062;SDS011;40529;52.172;10.548;2023-09-30T10:19:20;7.25;;;2.15;;
53062;SDS011;40529;52.172;10.548;2023-09-30T10:24:32;9.25;;;1.92;;
53062;SDS011;40529;52.172;10.548;2023-09-30T10:27:32;9.88;;;2.20;;
53062;SDS011;40529;52.172;10.548;2023-09-30T10:30:12;9.48;;;2.08;;
53062;SDS011;40529;52.172;10.548;2023-09-30T10:37:52;7.43;;;1.77;;
53062;SDS011;40529;52.172;10.548;2023-09-30T10:40:38;8.75;;;1.67;;
53062;SDS011;40529;52.172;10.548;2023-09-30T10:43:04;6.65;;;1.67;;
53062;SDS011;40529;52.172;10.548;2023-09-30T10:45:45;8.88;;;2.10;;
53062;SDS011;40529;52.172;10.548;2023-09-30T10:50:52;9.40;;;1.95;;
53062;SDS011;40529;52.172;10.548;2023-09-30T10:53:23;9.07;;;2.08;;
53062;SDS011;40529;52.172;10.548;2023-09-30T10:55:56;5.90;;;1.60;;
53062;SDS011;40529;52.172;10.548;2023-09-30T10:58:38;6.18;;;1.60;;
53062;SDS011;40529;52.172;10.548;2023-09-30T11:01:04;4.15;;;1.48;;
53062;SDS011;40529;52.172;10.548;2023-09-30T11:03:30;9.07;;;1.73;;
53062;SDS011;40529;52.172;10.548;2023-09-30T11:05:56;12.75;;;1.60;;
53062;SDS011;40529;52.172;10.548;2023-09-30T11:08:22;6.70;;;1.73;;
53062;SDS011;40529;52.172;10.548;2023-09-30T11:10:52;7.75;;;2.10;;
53062;SDS011;40529;52.172;10.548;2023-09-30T11:13:19;5.05;;;1.60;;
53062;SDS011;40529;52.172;10.548;2023-09-30T11:15:46;8.93;;;1.95;;
53062;SDS011;40529;52.172;10.548;2023-09-30T11:18:15;6.20;;;1.77;;
53062;SDS011;40529;52.172;10.548;2023-09-30T11:20:42;7.43;;;1.63;;
53062;SDS011;40529;52.172;10.548;2023-09-30T11:23:09;5.28;;;1.60;;
53062;SDS011;40529;52.172;10.548;2023-09-30T11:25:36;7.18;;;1.73;;
53062;SDS011;40529;52.172;10.548;2023-09-30T11:28:12;8.32;;;2.22;;
53062;SDS011;40529;52.172;10.548;2023-09-30T11:30:52;6.10;;;1.80;;
53062;SDS011;40529;52.172;10.548;2023-09-30T11:33:18;8.90;;;1.90;;
53062;SDS011;40529;52.172;10.548;2023-09-30T11:38:26;6.95;;;2.20;;
53062;SDS011;40529;52.172;10.548;2023-09-30T11:41:02;9.70;;;1.90;;
53062;SDS011;40529;52.172;10.548;2023-09-30T11:43:34;7.53;;;2.00;;
53062;SDS011;40529;52.172;10.548;2023-09-30T11:46:07;6.13;;;1.38;;
53062;SDS011;40529;52.172;10.548;2023-09-30T11:48:40;5.63;;;1.70;;
53062;SDS011;40529;52.172;10.548;2023-09-30T11:51:18;8.38;;;1.85;;
53062;SDS011;40529;52.172;10.548;2023-09-30T11:53:44;7.45;;;1.92;;
53062;SDS011;40529;52.172;10.548;2023-09-30T11:56:11;6.88;;;2.15;;
53062;SDS011;40529;52.172;10.548;2023-09-30T11:58:39;5.68;;;1.95;;
53062;SDS011;40529;52.172;10.548;2023-09-30T12:01:05;7.18;;;1.65;;
53062;SDS011;40529;52.172;10.548;2023-09-30T12:03:32;9.55;;;1.75;;
53062;SDS011;40529;52.172;10.548;2023-09-30T12:06:04;5.45;;;1.30;;
53062;SDS011;40529;52.172;10.548;2023-09-30T12:08:32;6.05;;;1.73;;
53062;SDS011;40529;52.172;10.548;2023-09-30T12:10:58;4.85;;;1.50;;
53062;SDS011;40529;52.172;10.548;2023-09-30T12:13:25;8.57;;;1.70;;
53062;SDS011;40529;52.172;10.548;2023-09-30T12:15:51;7.22;;;1.40;;
53062;SDS011;40529;52.172;10.548;2023-09-30T12:18:18;4.95;;;1.70;;
53062;SDS011;40529;52.172;10.548;2023-09-30T12:20:49;6.65;;;1.58;;
53062;SDS011;40529;52.172;10.548;2023-09-30T12:23:15;5.90;;;1.92;;
53062;SDS011;40529;52.172;10.548;2023-09-30T12:25:43;5.43;;;1.40;;
53062;SDS011;40529;52.172;10.548;2023-09-30T12:28:09;3.85;;;1.25;;
53062;SDS011;40529;52.172;10.548;2023-09-30T12:30:35;6.65;;;1.65;;
53062;SDS011;40529;52.172;10.548;2023-09-30T12:33:01;4.57;;;1.42;;
53062;SDS011;40529;52.172;10.548;2023-09-30T12:35:27;6.90;;;1.42;;
53062;SDS011;40529;52.172;10.548;2023-09-30T12:37:53;4.75;;;1.42;;
53062;SDS011;40529;52.172;10.548;2023-09-30T12:40:19;4.18;;;1.23;;
53062;SDS011;40529;52.172;10.548;2023-09-30T12:42:45;4.97;;;1.38;;
53062;SDS011;40529;52.172;10.548;2023-09-30T12:45:12;5.82;;;1.60;;
53062;SDS011;40529;52.172;10.548;2023-09-30T12:47:38;6.25;;;1.63;;
53062;SDS011;40529;52.172;10.548;2023-09-30T12:50:05;5.55;;;1.30;;
53062;SDS011;40529;52.172;10.548;2023-09-30T12:52:34;5.88;;;1.60;;
53062;SDS011;40529;52.172;10.548;2023-09-30T12:55:00;6.63;;;1.35;;
53062;SDS011;40529;52.172;10.548;2023-09-30T12:57:26;3.28;;;1.23;;
53062;SDS011;40529;52.172;10.548;2023-09-30T12:59:52;3.97;;;1.33;;
53062;SDS011;40529;52.172;10.548;2023-09-30T13:02:18;4.30;;;1.50;;
53062;SDS011;40529;52.172;10.548;2023-09-30T13:04:46;8.32;;;1.63;;
53062;SDS011;40529;52.172;10.548;2023-09-30T13:07:12;4.65;;;1.10;;
53062;SDS011;40529;52.172;10.548;2023-09-30T13:09:39;6.38;;;1.27;;
53062;SDS011;40529;52.172;10.548;2023-09-30T13:12:06;5.35;;;1.10;;
53062;SDS011;40529;52.172;10.548;2023-09-30T13:14:32;5.05;;;1.25;;
53062;SDS011;40529;52.172;10.548;2023-09-30T13:16:58;6.18;;;1.35;;
53062;SDS011;40529;52.172;10.548;2023-09-30T13:19:24;4.53;;;1.27;;
53062;SDS011;40529;52.172;10.548;2023-09-30T13:21:51;4.53;;;1.52;;
53062;SDS011;40529;52.172;10.548;2023-09-30T13:24:21;3.90;;;1.23;;
53062;SDS011;40529;52.172;10.548;2023-09-30T13:26:47;5.30;;;1.17;;
53062;SDS011;40529;52.172;10.548;2023-09-30T13:29:13;5.50;;;1.40;;
53062;SDS011;40529;52.172;10.548;2023-09-30T13:31:41;4.90;;;1.30;;
53062;SDS011;40529;52.172;10.548;2023-09-30T13:34:07;3.17;;;1.08;;
53062;SDS011;40529;52.172;10.548;2023-09-30T13:36:34;4.28;;;1.40;;
53062;SDS011;40529;52.172;10.548;2023-09-30T13:39:00;6.20;;;1.52;;
53062;SDS011;40529;52.172;10.548;2023-09-30T13:41:29;3.85;;;1.20;;
53062;SDS011;40529;52.172;10.548;2023-09-30T13:43:55;3.47;;;1.30;;
53062;SDS011;40529;52.172;10.548;2023-09-30T13:46:21;4.97;;;1.15;;
53062;SDS011;40529;52.172;10.548;2023-09-30T13:48:49;3.90;;;1.13;;
53062;SDS011;40529;52.172;10.548;2023-09-30T13:51:17;5.50;;;1.63;;
53062;SDS011;40529;52.172;10.548;2023-09-30T13:53:43;4.93;;;1.38;;
53062;SDS011;40529;52.172;10.548;2023-09-30T13:56:09;3.88;;;1.38;;
53062;SDS011;40529;52.172;10.548;2023-09-30T13:58:36;4.07;;;1.33;;
53062;SDS011;40529;52.172;10.548;2023-09-30T14:01:02;7.30;;;1.70;;
53062;SDS011;40529;52.172;10.548;2023-09-30T14:03:28;5.75;;;1.23;;
53062;SDS011;40529;52.172;10.548;2023-09-30T14:05:55;7.00;;;1.60;;
53062;SDS011;40529;52.172;10.548;2023-09-30T14:08:24;5.97;;;1.48;;
53062;SDS011;40529;52.172;10.548;2023-09-30T14:10:50;4.63;;;1.35;;
53062;SDS011;40529;52.172;10.548;2023-09-30T14:13:17;4.32;;;1.40;;
53062;SDS011;40529;52.172;10.548;2023-09-30T14:15:43;4.32;;;1.42;;
53062;SDS011;40529;52.172;10.548;2023-09-30T14:18:09;5.43;;;1.40;;
53062;SDS011;40529;52.172;10.548;2023-09-30T14:20:36;7.20;;;2.13;;
53062;SDS011;40529;52.172;10.548;2023-09-30T14:23:02;4.65;;;1.48;;
53062;SDS011;40529;52.172;10.548;2023-09-30T14:25:28;5.32;;;1.42;;
53062;SDS011;40529;52.172;10.548;2023-09-30T14:27:55;5.72;;;1.45;;
53062;SDS011;40529;52.172;10.548;2023-09-30T14:30:24;7.60;;;1.30;;
53062;SDS011;40529;52.172;10.548;2023-09-30T14:32:50;5.70;;;1.52;;
53062;SDS011;40529;52.172;10.548;2023-09-30T14:35:16;6.15;;;1.85;;
53062;SDS011;40529;52.172;10.548;2023-09-30T14:37:42;7.28;;;1.73;;
53062;SDS011;40529;52.172;10.548;2023-09-30T14:40:08;4.68;;;2.03;;
53062;SDS011;40529;52.172;10.548;2023-09-30T14:42:38;5.22;;;1.35;;
53062;SDS011;40529;52.172;10.548;2023-09-30T14:45:04;5.95;;;1.50;;
53062;SDS011;40529;52.172;10.548;2023-09-30T14:47:31;5.05;;;1.50;;
53062;SDS011;40529;52.172;10.548;2023-09-30T14:49:57;9.60;;;1.83;;
53062;SDS011;40529;52.172;10.548;2023-09-30T14:52:26;6.00;;;1.35;;
53062;SDS011;40529;52.172;10.548;2023-09-30T14:54:52;5.70;;;1.35;;